createdAt,value
2019-05-02T00:01:12.866Z,14.83
2019-05-02T00:03:42.929Z,15.20
2019-05-02T00:06:12.031Z,15.60
2019-05-02T00:08:40.732Z,16.30
2019-05-02T00:11:10.657Z,14.87
2019-05-02T00:13:39.234Z,15.50
2019-05-02T00:16:09.124Z,15.83
2019-05-02T00:18:39.093Z,16.30
2019-05-02T00:21:08.338Z,16.23
2019-05-02T00:23:36.846Z,15.23
2019-05-02T00:26:05.749Z,15.60
2019-05-02T00:28:34.265Z,16.70
2019-05-02T00:31:07.550Z,15.17
2019-05-02T00:33:34.343Z,15.77
2019-05-02T00:36:03.206Z,14.77
2019-05-02T00:38:33.308Z,15.13
2019-05-02T00:41:02.580Z,16.27
2019-05-02T00:43:34.331Z,15.90
2019-05-02T00:46:02.380Z,15.40
2019-05-02T00:48:32.469Z,16.50
2019-05-02T00:51:00.969Z,16.27
2019-05-02T00:53:29.435Z,16.40
2019-05-02T00:55:58.052Z,15.23
2019-05-02T00:58:27.327Z,16.53
2019-05-02T01:01:14.921Z,16.00
2019-05-02T01:03:47.163Z,17.30
2019-05-02T01:06:15.617Z,17.07
2019-05-02T01:08:44.079Z,17.10
2019-05-02T01:11:12.585Z,15.70
2019-05-02T01:13:41.049Z,15.77
2019-05-02T01:16:09.554Z,17.03
2019-05-02T01:18:41.413Z,14.60
2019-05-02T01:21:08.281Z,17.13
2019-05-02T01:23:36.803Z,15.70
2019-05-02T01:26:05.547Z,15.57
2019-05-02T01:28:54.342Z,17.53
2019-05-02T01:31:22.728Z,15.57
2019-05-02T01:33:55.506Z,15.70
2019-05-02T01:36:25.675Z,15.50
2019-05-02T01:38:54.129Z,16.47
2019-05-02T01:41:24.095Z,16.70
2019-05-02T01:43:54.913Z,16.83
2019-05-02T01:46:24.166Z,16.40
2019-05-02T01:48:52.809Z,16.40
2019-05-02T01:51:21.317Z,16.37
2019-05-02T01:53:49.764Z,16.67
2019-05-02T01:56:18.265Z,16.30
2019-05-02T01:58:46.764Z,16.50
2019-05-02T02:01:16.075Z,16.10
2019-05-02T02:03:46.843Z,15.23
2019-05-02T02:06:15.477Z,14.53
2019-05-02T02:08:43.989Z,14.60
2019-05-02T02:11:12.483Z,15.17
2019-05-02T02:13:41.019Z,14.47
2019-05-02T02:16:09.476Z,14.17
2019-05-02T02:18:45.310Z,15.17
2019-05-02T02:21:25.639Z,15.10
2019-05-02T02:23:52.792Z,14.17
2019-05-02T02:26:23.192Z,13.97
2019-05-02T02:28:51.755Z,14.40
2019-05-02T02:31:21.125Z,15.10
2019-05-02T02:33:50.135Z,14.70
2019-05-02T02:36:29.997Z,14.37
2019-05-02T02:38:48.745Z,14.87
2019-05-02T02:41:17.191Z,14.70
2019-05-02T02:43:47.426Z,14.60
2019-05-02T02:46:30.814Z,14.60
2019-05-02T02:48:56.576Z,12.80
2019-05-02T02:51:26.406Z,14.00
2019-05-02T02:54:02.753Z,14.33
2019-05-02T02:56:25.245Z,14.73
2019-05-02T02:58:53.736Z,14.20
2019-05-02T03:01:29.096Z,15.00
2019-05-02T03:03:52.404Z,14.07
2019-05-02T03:06:20.872Z,14.00
2019-05-02T03:08:49.444Z,14.67
2019-05-02T03:11:23.401Z,12.90
2019-05-02T03:14:06.078Z,15.77
2019-05-02T03:16:25.851Z,14.43
2019-05-02T03:18:54.302Z,14.73
2019-05-02T03:21:22.870Z,14.10
2019-05-02T03:24:01.448Z,13.17
2019-05-02T03:26:21.729Z,14.00
2019-05-02T03:28:57.071Z,13.37
2019-05-02T03:31:24.698Z,13.70
2019-05-02T03:33:56.490Z,13.43
2019-05-02T03:36:34.965Z,13.00
2019-05-02T03:38:51.457Z,13.37
2019-05-02T03:41:23.146Z,12.20
2019-05-02T03:43:50.171Z,12.33
2019-05-02T03:46:20.396Z,12.70
2019-05-02T03:48:48.886Z,13.00
2019-05-02T03:51:21.479Z,12.90
2019-05-02T03:53:47.674Z,14.47
2019-05-02T03:56:16.440Z,13.03
2019-05-02T03:58:48.363Z,13.17
2019-05-02T04:01:15.611Z,12.03
2019-05-02T04:03:44.258Z,12.83
2019-05-02T04:06:13.664Z,12.23
2019-05-02T04:08:44.056Z,11.90
2019-05-02T04:11:15.705Z,13.10
2019-05-02T04:13:44.217Z,13.23
2019-05-02T04:16:15.387Z,12.80
2019-05-02T04:18:54.649Z,12.37
2019-05-02T04:21:14.183Z,13.23
2019-05-02T04:23:42.899Z,12.97
2019-05-02T04:26:12.706Z,11.90
2019-05-02T04:28:45.674Z,12.33
2019-05-02T04:31:11.843Z,13.37
2019-05-02T04:33:40.330Z,11.80
2019-05-02T04:36:15.325Z,11.27
2019-05-02T04:38:46.955Z,12.80
2019-05-02T04:41:09.578Z,11.57
2019-05-02T04:43:40.531Z,10.10
2019-05-02T04:46:17.526Z,10.37
2019-05-02T04:48:44.362Z,10.70
2019-05-02T04:51:16.091Z,11.30
2019-05-02T04:53:44.340Z,10.10
2019-05-02T04:56:10.631Z,11.40
2019-05-02T04:58:40.610Z,10.23
2019-05-02T05:01:10.272Z,10.80
2019-05-02T05:03:39.040Z,9.90
2019-05-02T05:06:12.151Z,10.40
2019-05-02T05:08:38.906Z,11.23
2019-05-02T05:11:08.179Z,11.40
2019-05-02T05:13:37.440Z,11.03
2019-05-02T05:16:10.065Z,10.47
2019-05-02T05:18:37.764Z,10.50
2019-05-02T05:21:08.107Z,9.60
2019-05-02T05:23:44.585Z,10.80
2019-05-02T05:26:13.065Z,10.00
2019-05-02T05:28:44.370Z,9.50
2019-05-02T05:31:17.543Z,9.93
2019-05-02T05:33:41.880Z,9.53
2019-05-02T05:36:10.484Z,9.67
2019-05-02T05:38:41.184Z,9.10
2019-05-02T05:41:13.147Z,9.70
2019-05-02T05:43:39.847Z,9.90
2019-05-02T05:46:12.835Z,9.70
2019-05-02T05:48:40.795Z,10.00
2019-05-02T05:51:11.899Z,8.17
2019-05-02T05:53:39.196Z,7.37
2019-05-02T05:56:08.055Z,8.80
2019-05-02T05:58:39.807Z,8.13
2019-05-02T06:01:10.161Z,7.87
2019-05-02T06:03:41.861Z,8.10
2019-05-02T06:06:09.760Z,8.90
2019-05-02T06:08:37.507Z,8.40
2019-05-02T06:11:05.968Z,8.40
2019-05-02T06:13:34.509Z,8.60
2019-05-02T06:16:03.596Z,8.13
2019-05-02T06:18:36.427Z,8.60
2019-05-02T06:21:03.193Z,10.20
2019-05-02T06:23:36.297Z,11.20
2019-05-02T06:26:07.998Z,18.73
2019-05-02T06:28:36.211Z,12.80
2019-05-02T06:31:07.179Z,9.90
2019-05-02T06:33:33.871Z,11.53
2019-05-02T06:36:02.598Z,9.17
2019-05-02T06:38:31.097Z,9.17
2019-05-02T06:40:59.685Z,11.03
2019-05-02T06:43:28.129Z,10.50
2019-05-02T06:45:56.653Z,10.53
2019-05-02T06:48:25.100Z,10.70
2019-05-02T06:50:53.787Z,11.70
2019-05-02T06:53:22.230Z,9.07
2019-05-02T06:55:50.815Z,9.63
2019-05-02T06:58:19.262Z,10.20
2019-05-02T07:00:57.281Z,9.37
2019-05-02T07:03:17.949Z,9.90
2019-05-02T07:05:49.046Z,9.63
2019-05-02T07:08:16.777Z,10.40
2019-05-02T07:10:45.616Z,9.43
2019-05-02T07:13:15.198Z,9.53
2019-05-02T07:15:48.346Z,9.23
2019-05-02T07:18:23.316Z,9.70
2019-05-02T07:20:51.828Z,9.60
2019-05-02T07:23:20.301Z,10.60
2019-05-02T07:25:48.793Z,9.97
2019-05-02T07:28:17.354Z,9.80
2019-05-02T07:30:45.876Z,9.60
2019-05-02T07:33:14.673Z,9.13
2019-05-02T07:35:43.195Z,9.40
2019-05-02T07:38:11.763Z,9.77
2019-05-02T07:40:40.634Z,9.90
2019-05-02T07:43:21.054Z,12.03
2019-05-02T07:45:52.407Z,11.30
2019-05-02T07:48:24.461Z,11.20
2019-05-02T07:50:53.410Z,12.20
2019-05-02T07:53:22.451Z,12.13
2019-05-02T07:55:50.922Z,11.33
2019-05-02T07:58:19.442Z,12.83
2019-05-02T08:00:48.252Z,13.50
2019-05-02T08:03:16.862Z,13.60
2019-05-02T08:05:45.335Z,13.40
2019-05-02T08:08:13.852Z,14.47
2019-05-02T08:10:42.321Z,14.23
2019-05-02T08:13:11.969Z,14.13
2019-05-02T08:15:45.764Z,14.40
2019-05-02T08:18:11.205Z,14.70
2019-05-02T08:20:39.762Z,15.90
2019-05-02T08:23:08.286Z,14.77
2019-05-02T08:25:41.488Z,14.93
2019-05-02T08:28:10.227Z,13.63
2019-05-02T08:30:41.915Z,14.77
2019-05-02T08:33:10.511Z,16.20
2019-05-02T08:35:39.003Z,14.63
2019-05-02T08:38:07.518Z,15.43
2019-05-02T08:40:35.978Z,15.53
2019-05-02T08:43:09.339Z,14.67
2019-05-02T08:45:38.315Z,14.47
2019-05-02T08:48:06.429Z,14.63
2019-05-02T08:50:35.692Z,15.90
2019-05-02T08:53:05.056Z,14.70
2019-05-02T08:55:34.058Z,15.07
2019-05-02T08:58:06.093Z,14.43
2019-05-02T09:00:37.419Z,16.40
2019-05-02T09:03:04.757Z,15.60
2019-05-02T09:05:36.952Z,14.90
2019-05-02T09:08:04.221Z,15.37
2019-05-02T09:10:32.702Z,15.07
2019-05-02T09:13:02.941Z,16.33
2019-05-02T09:15:31.999Z,14.33
2019-05-02T09:18:02.850Z,15.63
2019-05-02T09:20:31.952Z,16.73
2019-05-02T09:23:01.772Z,15.50
2019-05-02T09:25:32.279Z,15.43
2019-05-02T09:28:01.835Z,18.03
2019-05-02T09:30:32.706Z,15.93
2019-05-02T09:33:04.926Z,16.20
2019-05-02T09:35:32.860Z,15.93
2019-05-02T09:38:01.817Z,16.90
2019-05-02T09:40:31.909Z,17.20
2019-05-02T09:43:02.773Z,17.07
2019-05-02T09:45:37.017Z,16.33
2019-05-02T09:48:07.045Z,16.13
2019-05-02T09:50:34.454Z,17.03
2019-05-02T09:53:03.240Z,17.30
2019-05-02T09:55:31.983Z,17.80
2019-05-02T09:58:02.499Z,16.93
2019-05-02T10:00:45.307Z,16.93
2019-05-02T10:03:14.084Z,18.20
2019-05-02T10:05:43.190Z,17.77
2019-05-02T10:08:13.865Z,17.60
2019-05-02T10:10:45.890Z,18.20
2019-05-02T10:13:12.838Z,17.17
2019-05-02T10:15:42.124Z,17.10
2019-05-02T10:18:13.766Z,16.97
2019-05-02T10:20:42.024Z,19.00
2019-05-02T10:23:14.119Z,17.83
2019-05-02T10:25:46.476Z,17.00
2019-05-02T10:28:12.864Z,17.53
2019-05-02T10:30:42.619Z,17.43
2019-05-02T10:33:12.313Z,18.37
2019-05-02T10:35:45.318Z,16.87
2019-05-02T10:38:19.106Z,17.07
2019-05-02T10:40:48.529Z,17.90
2019-05-02T10:43:14.686Z,18.43
2019-05-02T10:45:47.371Z,20.77
2019-05-02T10:48:27.430Z,17.90
2019-05-02T10:50:47.896Z,17.43
2019-05-02T10:53:16.387Z,17.60
2019-05-02T10:55:45.483Z,18.30
2019-05-02T10:58:14.202Z,18.93
2019-05-02T11:00:45.341Z,16.67
2019-05-02T11:03:31.896Z,18.00
2019-05-02T11:06:05.448Z,18.20
2019-05-02T11:08:36.879Z,18.70
2019-05-02T11:11:06.129Z,17.23
2019-05-02T11:13:38.665Z,18.10
2019-05-02T11:16:09.611Z,18.10
2019-05-02T11:18:55.900Z,17.70
2019-05-02T11:21:24.561Z,18.37
2019-05-02T11:23:53.088Z,18.37
2019-05-02T11:26:25.148Z,18.87
2019-05-02T11:28:52.235Z,18.00
2019-05-02T11:31:21.939Z,18.03
2019-05-02T11:33:52.650Z,17.80
2019-05-02T11:36:22.355Z,18.53
2019-05-02T11:39:00.110Z,16.97
2019-05-02T11:41:22.434Z,16.40
2019-05-02T11:43:54.058Z,17.47
2019-05-02T11:46:22.101Z,16.23
2019-05-02T11:48:56.479Z,17.93
2019-05-02T11:51:22.698Z,15.90
2019-05-02T11:53:52.703Z,17.37
2019-05-02T11:56:22.263Z,16.40
2019-05-02T11:58:52.869Z,16.37
2019-05-02T12:01:34.997Z,17.83
2019-05-02T12:03:52.823Z,17.60
2019-05-02T12:06:22.591Z,16.27
2019-05-02T12:08:52.509Z,16.83
2019-05-02T12:11:22.906Z,18.30
2019-05-02T12:13:56.777Z,16.03
2019-05-02T12:16:23.096Z,15.20
2019-05-02T12:18:53.695Z,16.47
2019-05-02T12:21:22.840Z,17.40
2019-05-02T12:23:52.672Z,15.80
2019-05-02T12:26:22.213Z,16.17
2019-05-02T12:28:52.716Z,17.27
2019-05-02T12:31:26.425Z,15.27
2019-05-02T12:33:56.317Z,15.67
2019-05-02T12:36:24.858Z,16.43
2019-05-02T12:38:53.378Z,27.23
2019-05-02T12:41:25.102Z,14.97
2019-05-02T12:43:52.536Z,16.10
2019-05-02T12:46:22.143Z,16.30
2019-05-02T12:48:52.022Z,14.10
2019-05-02T12:51:22.554Z,14.80
2019-05-02T12:53:52.797Z,14.10
2019-05-02T12:56:22.944Z,16.13
2019-05-02T12:58:52.949Z,13.90
2019-05-02T13:01:22.031Z,14.43
2019-05-02T13:04:02.771Z,15.87
2019-05-02T13:06:32.783Z,14.53
2019-05-02T13:09:03.148Z,15.63
2019-05-02T13:11:45.690Z,15.47
2019-05-02T13:14:19.060Z,14.80
2019-05-02T13:16:43.096Z,13.60
2019-05-02T13:19:12.004Z,14.17
2019-05-02T13:22:02.236Z,15.30
2019-05-02T13:24:34.875Z,13.60
2019-05-02T13:27:04.595Z,13.50
2019-05-02T13:29:33.116Z,14.10
2019-05-02T13:32:14.355Z,13.10
2019-05-02T13:34:48.372Z,13.03
2019-05-02T13:37:15.685Z,13.50
2019-05-02T13:39:53.009Z,12.50
2019-05-02T13:42:22.017Z,11.53
2019-05-02T13:45:08.226Z,12.80
2019-05-02T13:47:36.792Z,13.30
2019-05-02T13:50:07.909Z,13.60
2019-05-02T13:52:36.465Z,14.17
2019-05-02T13:55:07.502Z,13.90
2019-05-02T13:57:41.737Z,13.10
2019-05-02T14:00:07.809Z,13.47
2019-05-02T14:02:42.874Z,13.37
2019-05-02T14:05:13.190Z,14.43
2019-05-02T14:07:53.982Z,15.30
2019-05-02T14:10:24.481Z,14.17
2019-05-02T14:12:57.134Z,16.77
2019-05-02T14:15:27.311Z,15.53
2019-05-02T14:17:58.546Z,13.97
2019-05-02T14:20:27.502Z,16.00
2019-05-02T14:22:55.981Z,15.40
2019-05-02T14:25:24.526Z,14.97
2019-05-02T14:27:55.635Z,15.90
2019-05-02T14:30:36.230Z,16.43
2019-05-02T14:32:56.701Z,15.60
2019-05-02T14:35:36.670Z,16.80
2019-05-02T14:38:15.113Z,16.00
2019-05-02T14:40:51.972Z,16.40
2019-05-02T14:43:31.652Z,16.27
2019-05-02T14:46:02.791Z,16.13
2019-05-02T14:48:41.076Z,17.10
2019-05-02T14:51:04.535Z,17.07
2019-05-02T14:53:33.050Z,16.10
2019-05-02T14:56:06.232Z,16.37
2019-05-02T14:58:37.801Z,16.97
2019-05-02T15:01:06.001Z,17.60
2019-05-02T15:03:34.557Z,18.77
2019-05-02T15:06:06.825Z,19.73
2019-05-02T15:08:36.804Z,19.43
2019-05-02T15:11:03.723Z,18.90
2019-05-02T15:13:39.816Z,19.17
2019-05-02T15:16:02.575Z,20.93
2019-05-02T15:18:32.145Z,17.97
2019-05-02T15:21:03.948Z,19.80
2019-05-02T15:23:32.475Z,19.17
2019-05-02T15:26:02.616Z,20.50
2019-05-02T15:28:37.434Z,19.50
2019-05-02T15:31:06.290Z,20.90
2019-05-02T15:33:36.732Z,18.67
2019-05-02T15:36:07.576Z,22.20
2019-05-02T15:38:41.548Z,24.73
2019-05-02T15:41:09.547Z,22.37
2019-05-02T15:43:39.359Z,22.47
2019-05-02T15:46:06.965Z,39.67
2019-05-02T15:48:35.485Z,51.57
2019-05-02T15:51:06.211Z,20.93
2019-05-02T15:53:49.706Z,26.27
2019-05-02T15:56:19.846Z,20.17
2019-05-02T15:58:45.797Z,19.50
2019-05-02T16:01:24.805Z,20.80
2019-05-02T16:03:54.972Z,19.93
2019-05-02T16:06:30.475Z,19.27
2019-05-02T16:08:53.809Z,20.20
2019-05-02T16:11:22.993Z,19.47
2019-05-02T16:13:55.962Z,19.27
2019-05-02T16:16:23.277Z,19.40
2019-05-02T16:18:52.507Z,20.53
2019-05-02T16:21:29.082Z,21.10
2019-05-02T16:24:14.783Z,19.67
2019-05-02T16:26:42.723Z,19.17
2019-05-02T16:29:14.908Z,18.63
2019-05-02T16:31:43.701Z,18.70
2019-05-02T16:34:12.881Z,19.80
2019-05-02T16:36:42.441Z,20.03
2019-05-02T16:39:13.312Z,18.57
2019-05-02T16:41:48.942Z,19.40
2019-05-02T16:44:12.708Z,19.47
2019-05-02T16:46:43.810Z,20.33
2019-05-02T16:49:15.637Z,20.67
2019-05-02T16:51:43.165Z,18.63
2019-05-02T16:54:12.739Z,19.33
2019-05-02T16:56:44.865Z,18.80
2019-05-02T16:59:12.616Z,19.63
2019-05-02T17:01:42.548Z,19.57
2019-05-02T17:04:12.793Z,19.70
2019-05-02T17:06:42.658Z,18.93
2019-05-02T17:09:24.045Z,20.20
2019-05-02T17:11:52.510Z,20.63
2019-05-02T17:14:22.084Z,20.10
2019-05-02T17:16:52.430Z,19.60
2019-05-02T17:19:21.623Z,18.60
2019-05-02T17:21:55.509Z,20.50
2019-05-02T17:24:24.611Z,20.50
2019-05-02T17:26:51.892Z,21.43
2019-05-02T17:29:21.347Z,20.90
2019-05-02T17:31:56.820Z,20.53
2019-05-02T17:34:24.496Z,21.27
2019-05-02T17:36:51.930Z,20.87
2019-05-02T17:39:22.302Z,22.47
2019-05-02T17:41:52.415Z,22.33
2019-05-02T17:44:24.478Z,25.03
2019-05-02T17:46:58.207Z,25.57
2019-05-02T17:49:23.862Z,24.80
2019-05-02T17:52:11.278Z,25.40
2019-05-02T17:54:39.471Z,27.47
2019-05-02T17:57:08.041Z,28.57
2019-05-02T17:59:37.669Z,28.57
2019-05-02T18:02:06.594Z,28.80
2019-05-02T18:04:36.477Z,28.43
2019-05-02T18:07:05.205Z,29.87
2019-05-02T18:09:35.158Z,28.63
2019-05-02T18:12:07.161Z,27.90
2019-05-02T18:14:35.032Z,28.63
2019-05-02T18:17:03.494Z,27.50
2019-05-02T18:19:32.001Z,28.53
2019-05-02T18:22:03.501Z,27.37
2019-05-02T18:24:32.489Z,30.20
2019-05-02T18:27:02.149Z,27.60
2019-05-02T18:29:30.911Z,27.57
2019-05-02T18:31:59.397Z,27.30
2019-05-02T18:34:28.157Z,28.57
2019-05-02T18:36:57.572Z,29.30
2019-05-02T18:39:26.796Z,28.67
2019-05-02T18:41:55.252Z,28.50
2019-05-02T18:44:23.769Z,30.55
2019-05-02T18:46:52.452Z,28.93
2019-05-02T18:49:21.933Z,27.20
2019-05-02T18:51:53.867Z,29.87
2019-05-02T18:54:21.821Z,27.77
2019-05-02T18:56:55.040Z,26.57
2019-05-02T18:59:22.477Z,27.17
2019-05-02T19:01:54.484Z,26.20
2019-05-02T19:04:22.401Z,27.07
2019-05-02T19:06:51.907Z,27.67
2019-05-02T19:09:24.970Z,26.40
2019-05-02T19:11:52.361Z,26.20
2019-05-02T19:14:22.307Z,26.20
2019-05-02T19:16:52.102Z,27.97
2019-05-02T19:19:22.560Z,26.33
2019-05-02T19:21:51.751Z,28.00
2019-05-02T19:24:22.679Z,26.37
2019-05-02T19:26:53.283Z,28.50
2019-05-02T19:29:24.098Z,26.80
2019-05-02T19:31:52.896Z,27.43
2019-05-02T19:34:25.324Z,27.70
2019-05-02T19:36:52.907Z,27.27
2019-05-02T19:39:24.034Z,26.53
2019-05-02T19:41:53.944Z,26.83
2019-05-02T19:44:29.258Z,27.53
2019-05-02T19:46:52.850Z,28.00
2019-05-02T19:49:22.404Z,27.47
2019-05-02T19:51:56.542Z,27.23
2019-05-02T19:54:22.031Z,27.20
2019-05-02T19:56:52.417Z,27.50
2019-05-02T19:59:24.638Z,26.73
2019-05-02T20:01:52.157Z,29.00
2019-05-02T20:04:22.233Z,27.90
2019-05-02T20:06:50.886Z,27.43
2019-05-02T20:09:19.403Z,27.30
2019-05-02T20:11:48.153Z,29.10
2019-05-02T20:14:16.957Z,28.37
2019-05-02T20:16:49.723Z,27.23
2019-05-02T20:19:23.243Z,28.00
2019-05-02T20:21:51.940Z,27.30
2019-05-02T20:24:22.547Z,27.30
2019-05-02T20:26:52.364Z,27.20
2019-05-02T20:29:21.362Z,27.83
2019-05-02T20:31:51.683Z,27.50
2019-05-02T20:34:22.223Z,27.03
2019-05-02T20:36:51.866Z,26.97
2019-05-02T20:39:22.506Z,26.10
2019-05-02T20:41:52.904Z,26.43
2019-05-02T20:44:21.745Z,27.57
2019-05-02T20:46:51.629Z,27.50
2019-05-02T20:49:20.345Z,27.77
2019-05-02T20:51:48.848Z,26.83
2019-05-02T20:54:17.375Z,14.73
2019-05-02T20:56:45.887Z,15.17
2019-05-02T20:59:14.394Z,15.53
2019-05-02T21:01:43.117Z,17.20
2019-05-02T21:04:12.105Z,16.03
2019-05-02T21:06:44.108Z,14.57
2019-05-02T21:09:21.773Z,14.10
2019-05-02T21:11:52.598Z,13.53
2019-05-02T21:14:21.684Z,14.03
2019-05-02T21:16:50.249Z,13.73
2019-05-02T21:19:18.784Z,14.90
2019-05-02T21:21:47.333Z,14.50
2019-05-02T21:24:15.788Z,13.83
2019-05-02T21:26:44.354Z,14.70
2019-05-02T21:29:12.821Z,16.53
2019-05-02T21:31:42.582Z,17.40
2019-05-02T21:34:11.744Z,17.60
2019-05-02T21:36:42.376Z,18.93
2019-05-02T21:39:12.083Z,17.00
2019-05-02T21:41:42.336Z,17.60
2019-05-02T21:44:12.950Z,17.17
2019-05-02T21:46:42.310Z,17.10
2019-05-02T21:49:12.039Z,17.50
2019-05-02T21:51:42.679Z,15.90
2019-05-02T21:54:15.623Z,14.90
2019-05-02T21:56:46.264Z,11.37
2019-05-02T21:59:14.706Z,8.60
2019-05-02T22:01:51.917Z,7.70
2019-05-02T22:04:22.493Z,6.70
2019-05-02T22:06:52.202Z,6.30
2019-05-02T22:09:23.143Z,4.73
2019-05-02T22:11:52.048Z,4.80
2019-05-02T22:14:22.348Z,3.90
2019-05-02T22:16:52.882Z,3.50
2019-05-02T22:19:21.306Z,3.10
2019-05-02T22:21:49.751Z,3.57
2019-05-02T22:24:18.324Z,3.73
2019-05-02T22:26:46.753Z,3.23
2019-05-02T22:29:15.424Z,3.10
2019-05-02T22:31:43.845Z,3.50
2019-05-02T22:34:12.924Z,2.93
2019-05-02T22:36:42.043Z,3.20
2019-05-02T22:39:31.702Z,3.10
2019-05-02T22:42:01.924Z,3.37
2019-05-02T22:44:32.345Z,2.83
2019-05-02T22:47:00.477Z,3.00
2019-05-02T22:49:28.901Z,3.63
2019-05-02T22:51:57.442Z,3.07
2019-05-02T22:54:30.346Z,3.60
2019-05-02T22:56:56.098Z,3.30
2019-05-02T22:59:24.523Z,3.77
2019-05-02T23:01:53.000Z,2.80
2019-05-02T23:04:23.256Z,2.80
2019-05-02T23:06:52.955Z,2.70
2019-05-02T23:09:22.155Z,3.07
2019-05-02T23:11:51.904Z,3.13
2019-05-02T23:14:22.049Z,3.10
2019-05-02T23:16:52.903Z,3.37
2019-05-02T23:19:23.061Z,2.83
2019-05-02T23:21:52.604Z,3.50
2019-05-02T23:24:36.008Z,3.30
2019-05-02T23:27:11.695Z,3.40
2019-05-02T23:29:40.150Z,3.37
2019-05-02T23:32:08.599Z,3.70
2019-05-02T23:34:37.178Z,3.37
2019-05-02T23:37:05.678Z,3.90
2019-05-02T23:39:34.416Z,4.27
2019-05-02T23:42:02.874Z,3.90
2019-05-02T23:44:31.380Z,4.03
2019-05-02T23:46:59.797Z,4.00
2019-05-02T23:49:28.300Z,4.40
2019-05-02T23:51:56.752Z,4.23
2019-05-02T23:54:25.329Z,4.00
2019-05-02T23:56:53.827Z,4.00
2019-05-02T23:59:22.477Z,4.03
